• Join FlightAware (Why Join?)
  • Login
  • US Flag 
07:56PM EDT


 

Airport Tracker/Info


-or-


 

Live Flight TrackerFlight Track Log ✈ PDT4226 ✈ 24-Oct-2013 ✈ KBGM - KPHL

Flight Track Log - Related Links

Times and Time Zones

All times are in EDT time to prevent confusion due to time zone crossing. See the PDT4226 flight status page for this flight to view local times or setup timezone preferences in your user account.

Time Position Orientation Groundspeed Altitude Reporting Facility
EDT Latitude Longitude Course Direction KTS MPH feet Rate Location/Type
01:51PM 41.9120 -75.8828 159° South  Level Estimated
01:52PM 41.8517 -75.8706 171° South  Level FlightAware Approximate
01:53PM 41.7914 -75.8585 171° South  Level FlightAware Approximate
01:54PM 41.7321 -75.8388 153° Southeast  Level Estimated
01:55PM 41.6729 -75.8193 161° South  Level Estimated
01:56PM 41.6137 -75.7993 166° South  Level FlightAware Approximate
01:57PM 41.5546 -75.7795 166° South  Level FlightAware Approximate
01:58PM 41.4953 -75.7600 162° South  Level Estimated
01:59PM 41.4368 -75.7370 164° South  Level FlightAware Approximate
02:00PM 41.3783 -75.7141 164° South  Level FlightAware Approximate
02:01PM 41.3198 -75.6911 164° South  Level FlightAware Approximate
02:02PM 41.2604 -75.6723 159° South  Level Estimated
02:03PM 41.2011 -75.6535 163° South  Level Estimated
02:04PM 41.1429 -75.6289 162° South  Level FlightAware Approximate
02:05PM 41.0848 -75.6043 162° South  Level FlightAware Approximate
02:06PM 41.0267 -75.5798 162° South  Level FlightAware Approximate
02:07PM 40.9672 -75.5621 190° South  Level Estimated
02:08PM 40.9065 -75.5540 174° South  Level FlightAware Approximate
02:09PM 40.8458 -75.5459 174° South  Level FlightAware Approximate
02:10PM 40.7851 -75.5378 174° South  Level FlightAware Approximate
02:11PM 40.7259 -75.5183 187° South  Level Estimated
02:12PM 40.6649 -75.5180 180° South  Level FlightAware Approximate
02:13PM 40.6059 -75.4971 190° South  Level Estimated
02:14PM 40.5453 -75.5062 186° South  Level FlightAware Approximate
02:15PM 40.4869 -75.4829 180° South  Level Estimated
02:16PM 40.4285 -75.4597 143° Southeast  Level Estimated
02:17PM 40.3701 -75.4366 143° Southeast  Level Estimated
02:18PM 40.3117 -75.4135 143° Southeast  Level Estimated
02:19PM 40.2533 -75.3904 143° Southeast  Level Estimated
02:19PM 40.5333 -75.5000 150° Southeast 220 253 5,100  Level Philadelphia TRACON
02:19PM 40.5167 -75.5000 180° South 221 254 5,100  Level Philadelphia TRACON
02:20PM 40.1949 -75.3674 123° Southeast  Level Estimated
02:20PM 40.4667 -75.5167 194° South 221 254 5,100  Level Philadelphia TRACON
02:21PM 40.1365 -75.3444 90° East  Level Estimated
02:21PM 40.4000 -75.5333 191° South 220 253 5,100  Level Philadelphia TRACON
02:22PM 40.0781 -75.3214 150° Southeast  Level Estimated
02:22PM 40.3333 -75.5333 180° South 220 253 5,100  Level Philadelphia TRACON
02:23PM 40.0196 -75.2985 150° Southeast  Level Estimated
02:23PM 40.2833 -75.5333 180° South 240 276 5,100  Level Philadelphia TRACON
02:24PM 39.9612 -75.2756 150° Southeast  Level Estimated
02:24PM 40.2833 -75.4500 90° East 237 273 5,100  Level Philadelphia TRACON
02:25PM 40.2833 -75.3500 90° East 236 272 5,100  Level Philadelphia TRACON
02:26PM 40.3000 -75.2667 75° East 236 272 5,100  Level Philadelphia TRACON
02:27PM 40.2833 -75.2000 108° East 237 273 5,100 -480 Level Philadelphia TRACON
02:28PM 40.2167 -75.2167 191° South 235 270 4,200 -540 Descending Philadelphia TRACON
02:29PM 40.1667 -75.2500 207° Southwest 212 244 4,100 -60 Descending Philadelphia TRACON
02:30PM 40.1000 -75.2333 169° South 231 266 4,100 -60 Level Philadelphia TRACON
02:31PM 40.0333 -75.2167 169° South 227 261 4,000 -60 Descending Philadelphia TRACON
02:32PM 39.9833 -75.1833 153° Southeast 223 257 4,000  Level Philadelphia TRACON
02:33PM 39.9333 -75.1500 153° Southeast 203 234 4,000 -240 Level Philadelphia TRACON
02:34PM 39.8667 -75.1333 169° South 204 235 3,600 -1,140 Descending Philadelphia TRACON
02:35PM 39.8333 -75.1500 201° Southwest 171 197 1,800 -1,140 Descending Philadelphia TRACON
02:36PM 39.8167 -75.2000 247° West 131 151 1,400 -600 Descending Philadelphia TRACON
02:37PM 39.8500 -75.2167 339° North 115 132 600 -840 Descending Philadelphia TRACON